createdAt,value
2022-10-19T00:02:24.743Z,51.00
2022-10-19T00:12:31.710Z,51.90
2022-10-19T00:22:42.038Z,52.20
2022-10-19T00:32:49.140Z,52.80
2022-10-19T00:42:59.989Z,52.80
2022-10-19T00:53:07.204Z,56.50
2022-10-19T01:03:16.963Z,59.60
2022-10-19T01:13:35.986Z,62.20
2022-10-19T01:24:14.017Z,62.70
2022-10-19T01:34:29.262Z,63.50
2022-10-19T01:44:42.867Z,64.50
2022-10-19T01:54:58.330Z,65.00
2022-10-19T02:05:07.854Z,64.50
2022-10-19T02:15:20.152Z,63.80
2022-10-19T02:25:28.114Z,64.90
2022-10-19T02:35:40.414Z,69.00
2022-10-19T02:45:54.251Z,69.00
2022-10-19T02:56:03.300Z,69.00
2022-10-19T03:06:10.318Z,67.70
2022-10-19T03:16:18.895Z,67.10
2022-10-19T03:26:26.033Z,66.80
2022-10-19T03:36:36.038Z,66.80
2022-10-19T03:46:43.398Z,66.80
2022-10-19T03:56:52.117Z,67.10
2022-10-19T04:06:59.131Z,66.30
2022-10-19T04:17:20.785Z,64.40
2022-10-19T04:27:39.528Z,64.00
2022-10-19T04:37:48.333Z,63.80
2022-10-19T04:48:21.019Z,63.50
2022-10-19T04:58:30.712Z,63.20
2022-10-19T05:08:38.396Z,63.10
2022-10-19T05:18:51.657Z,62.90
2022-10-19T05:29:02.538Z,62.70
2022-10-19T05:39:14.905Z,62.50
2022-10-19T05:49:24.327Z,62.10
2022-10-19T05:59:33.098Z,61.40
2022-10-19T06:09:46.875Z,61.20
2022-10-19T06:19:56.086Z,62.80
2022-10-19T06:30:04.645Z,64.00
2022-10-19T06:40:14.198Z,62.70
2022-10-19T06:50:21.700Z,62.60
2022-10-19T07:00:34.145Z,62.30
2022-10-19T07:10:41.305Z,61.90
2022-10-19T07:20:57.846Z,61.30
2022-10-19T07:31:15.477Z,61.20
2022-10-19T07:41:25.848Z,60.90
2022-10-19T07:51:33.085Z,60.90
2022-10-19T08:01:46.889Z,60.70
2022-10-19T08:12:15.415Z,60.60
2022-10-19T08:22:30.136Z,60.50
2022-10-19T08:33:37.529Z,60.40
2022-10-19T08:43:59.034Z,60.60
2022-10-19T08:54:13.139Z,60.40
2022-10-19T09:04:28.585Z,60.40
2022-10-19T09:14:43.594Z,60.30
2022-10-19T09:24:55.125Z,60.20
2022-10-19T09:35:05.072Z,60.20
2022-10-19T09:46:09.521Z,60.40
2022-10-19T09:56:25.685Z,60.20
2022-10-19T10:06:34.386Z,60.10
2022-10-19T10:16:41.736Z,60.10
2022-10-19T10:26:52.033Z,59.90
2022-10-19T10:36:59.504Z,59.90
2022-10-19T10:58:48.696Z,59.80
2022-10-19T11:09:09.225Z,59.70
2022-10-19T11:19:24.373Z,59.60
2022-10-19T11:29:51.629Z,59.60
2022-10-19T11:40:11.534Z,59.60
2022-10-19T11:50:32.549Z,59.50
2022-10-19T12:00:45.361Z,59.40
2022-10-19T12:11:27.197Z,59.50
2022-10-19T12:21:37.250Z,59.50
2022-10-19T12:31:47.007Z,59.40
2022-10-19T12:42:25.855Z,59.30
2022-10-19T12:52:43.882Z,59.20
2022-10-19T13:02:59.692Z,59.30
2022-10-19T13:13:08.648Z,59.20
2022-10-19T13:23:40.923Z,59.20
2022-10-19T13:33:58.026Z,59.20
2022-10-19T13:44:19.246Z,59.30
2022-10-19T13:54:40.361Z,59.30
2022-10-19T14:05:10.404Z,59.20
2022-10-19T14:15:29.017Z,59.20
2022-10-19T14:25:36.311Z,59.10
2022-10-19T14:35:51.728Z,59.10
2022-10-19T14:46:17.357Z,58.90
2022-10-19T14:56:29.994Z,59.40
2022-10-19T15:06:43.451Z,59.80
2022-10-19T15:16:55.658Z,60.10
2022-10-19T15:27:16.061Z,60.20
2022-10-19T15:47:38.673Z,59.50
2022-10-19T15:57:47.347Z,59.20
2022-10-19T16:07:54.189Z,58.60
2022-10-19T16:18:03.975Z,58.60
2022-10-19T16:28:11.316Z,58.50
2022-10-19T16:38:20.465Z,58.70
2022-10-19T16:48:27.757Z,58.80
2022-10-19T16:58:37.382Z,59.10
2022-10-19T17:09:14.718Z,60.70
2022-10-19T17:19:14.443Z,61.30
2022-10-19T17:29:22.981Z,60.70
2022-10-19T17:39:32.153Z,60.30
2022-10-19T17:49:40.083Z,61.00
2022-10-19T17:59:52.922Z,61.50
2022-10-19T18:10:00.250Z,61.50
2022-10-19T18:20:10.141Z,62.10
2022-10-19T18:30:17.216Z,62.90
2022-10-19T18:40:26.815Z,63.50
2022-10-19T18:50:33.915Z,65.20
2022-10-19T19:00:45.714Z,66.50
2022-10-19T19:10:56.717Z,66.80
2022-10-19T19:21:18.437Z,67.10
2022-10-19T19:31:29.424Z,67.00
2022-10-19T19:41:43.493Z,67.70
2022-10-19T19:51:54.437Z,68.70
2022-10-19T20:02:07.665Z,70.40
2022-10-19T20:12:18.833Z,71.30
2022-10-19T20:22:31.412Z,73.20
2022-10-19T20:32:42.133Z,75.10
2022-10-19T20:42:57.895Z,76.10
2022-10-19T20:53:07.181Z,76.40
2022-10-19T21:03:23.367Z,76.40
2022-10-19T21:13:34.123Z,77.40
2022-10-19T21:23:45.543Z,76.80
2022-10-19T21:33:55.682Z,77.00
2022-10-19T21:44:08.126Z,76.60
2022-10-19T21:54:18.812Z,76.30
2022-10-19T22:04:33.220Z,75.10
2022-10-19T22:14:48.758Z,74.10
2022-10-19T22:25:02.258Z,74.00
2022-10-19T22:35:15.985Z,73.90
2022-10-19T22:45:25.967Z,74.00
2022-10-19T22:55:35.134Z,74.10
2022-10-19T23:05:43.812Z,74.30
2022-10-19T23:15:51.966Z,75.60
2022-10-19T23:26:06.458Z,74.30
2022-10-19T23:36:17.233Z,74.20
2022-10-19T23:46:32.819Z,74.60
2022-10-19T23:56:43.750Z,72.80
